Leigh, Texas
Current Conditions -  °F | °C
As of 12:55 AM on Sunday 21 Dec 2014 (Local Time) from KASL Reporting Station
NA  
Wind Chill: 38°   Ceiling: NA
Heat Index: 38°   Visibility: 3mi
Dew Point: 36°   Wind: 0mph
Humidity: 94%   Direction: NA
Pressure: 30.2"   Gusts: NA
Location:  32.6187°N, 94.1782°W
Report Text: KASL 210655Z AUTO 00000KT 3SM 03/02 A3020 RMK AO1 SKY OBSCURED T00310022
Loading
Personal Weather Stations






























Interactive Weather Map New forecast layout! Learn more

10-Day Weather Forecast

Advertisements
Track Severe Weather on mobile